<?xml version="1.0" encoding="UTF-8" standalone="no" ?>
<gpx xmlns="http://www.topografix.com/GPX/1/1" xmlns:xsi="http://www.w3.org/2001/XMLSchema-instance" xsi:schemaLocation="http://www.topografix.com/GPX/1/1 http://www.topografix.com/GPX/1/1/gpx.xsd" version="1.1" creator="VisuGPX - https://www.visugpx.com">
  <metadata>
    <name>VacancesDricouZoe</name>
  </metadata>
  <trk>
    <name><![CDATA[Journal actif: 2021-07-05 15:28]]></name>
    <trkseg>
      <trkpt lat="43.3739" lon="-1.77045">
        <ele>8.79</ele>
        <time>2021-07-05T17:28:22Z</time>
      </trkpt>
      <trkpt lat="43.37391" lon="-1.77045">
        <ele>8.31</ele>
        <time>2021-07-05T17:30:24Z</time>
      </trkpt>
      <trkpt lat="43.37388" lon="-1.77047">
        <ele>8.31</ele>
        <time>2021-07-05T17:30:36Z</time>
      </trkpt>
      <trkpt lat="43.37385" lon="-1.77053">
        <ele>8.31</ele>
        <time>2021-07-05T17:30:40Z</time>
      </trkpt>
      <trkpt lat="43.37385" lon="-1.77053">
        <ele>7.83</ele>
        <time>2021-07-05T17:30:41Z</time>
      </trkpt>
      <trkpt lat="43.37368" lon="-1.77134">
        <ele>7.35</ele>
        <time>2021-07-05T17:30:56Z</time>
      </trkpt>
      <trkpt lat="43.37354" lon="-1.77207">
        <ele>6.39</ele>
        <time>2021-07-05T17:31:11Z</time>
      </trkpt>
      <trkpt lat="43.37343" lon="-1.77262">
        <ele>5.91</ele>
        <time>2021-07-05T17:31:24Z</time>
      </trkpt>
      <trkpt lat="43.37329" lon="-1.77331">
        <ele>5.42</ele>
        <time>2021-07-05T17:31:36Z</time>
      </trkpt>
      <trkpt lat="43.37316" lon="-1.77391">
        <ele>6.39</ele>
        <time>2021-07-05T17:31:50Z</time>
      </trkpt>
      <trkpt lat="43.37314" lon="-1.77407">
        <ele>5.91</ele>
        <time>2021-07-05T17:32:01Z</time>
      </trkpt>
      <trkpt lat="43.37306" lon="-1.77477">
        <ele>5.91</ele>
        <time>2021-07-05T17:32:17Z</time>
      </trkpt>
      <trkpt lat="43.37296" lon="-1.77558">
        <ele>5.42</ele>
        <time>2021-07-05T17:32:34Z</time>
      </trkpt>
      <trkpt lat="43.37295" lon="-1.77572">
        <ele>4.94</ele>
        <time>2021-07-05T17:32:39Z</time>
      </trkpt>
      <trkpt lat="43.37294" lon="-1.77575">
        <ele>4.94</ele>
        <time>2021-07-05T17:32:40Z</time>
      </trkpt>
      <trkpt lat="43.37291" lon="-1.77567">
        <ele>4.94</ele>
        <time>2021-07-05T17:32:41Z</time>
      </trkpt>
      <trkpt lat="43.37258" lon="-1.77571">
        <ele>3.98</ele>
        <time>2021-07-05T17:32:51Z</time>
      </trkpt>
      <trkpt lat="43.37237" lon="-1.77574">
        <ele>3.98</ele>
        <time>2021-07-05T17:32:56Z</time>
      </trkpt>
      <trkpt lat="43.37233" lon="-1.77575">
        <ele>3.98</ele>
        <time>2021-07-05T17:32:57Z</time>
      </trkpt>
      <trkpt lat="43.37229" lon="-1.77575">
        <ele>3.98</ele>
        <time>2021-07-05T17:32:58Z</time>
      </trkpt>
      <trkpt lat="43.37225" lon="-1.77576">
        <ele>3.98</ele>
        <time>2021-07-05T17:32:59Z</time>
      </trkpt>
      <trkpt lat="43.37222" lon="-1.77576">
        <ele>3.5</ele>
        <time>2021-07-05T17:33:09Z</time>
      </trkpt>
      <trkpt lat="43.37197" lon="-1.77579">
        <ele>3.02</ele>
        <time>2021-07-05T17:33:17Z</time>
      </trkpt>
      <trkpt lat="43.37116" lon="-1.77586">
        <ele>2.54</ele>
        <time>2021-07-05T17:33:35Z</time>
      </trkpt>
      <trkpt lat="43.3707" lon="-1.77591">
        <ele>2.06</ele>
        <time>2021-07-05T17:33:50Z</time>
      </trkpt>
      <trkpt lat="43.3707" lon="-1.77591">
        <ele>2.06</ele>
        <time>2021-07-05T17:33:52Z</time>
      </trkpt>
      <trkpt lat="43.37065" lon="-1.77592">
        <ele>2.06</ele>
        <time>2021-07-05T17:33:53Z</time>
      </trkpt>
      <trkpt lat="43.37065" lon="-1.77592">
        <ele>2.06</ele>
        <time>2021-07-05T17:33:54Z</time>
      </trkpt>
      <trkpt lat="43.37063" lon="-1.77588">
        <ele>2.06</ele>
        <time>2021-07-05T17:33:55Z</time>
      </trkpt>
      <trkpt lat="43.37063" lon="-1.77578">
        <ele>2.06</ele>
        <time>2021-07-05T17:33:56Z</time>
      </trkpt>
      <trkpt lat="43.37063" lon="-1.77578">
        <ele>1.58</ele>
        <time>2021-07-05T17:33:57Z</time>
      </trkpt>
      <trkpt lat="43.37053" lon="-1.77473">
        <ele>1.58</ele>
        <time>2021-07-05T17:34:11Z</time>
      </trkpt>
      <trkpt lat="43.37012" lon="-1.77362">
        <ele>0.62</ele>
        <time>2021-07-05T17:34:26Z</time>
      </trkpt>
      <trkpt lat="43.36956" lon="-1.77289">
        <ele>0.14</ele>
        <time>2021-07-05T17:34:40Z</time>
      </trkpt>
      <trkpt lat="43.36885" lon="-1.77216">
        <ele>-0.34</ele>
        <time>2021-07-05T17:34:57Z</time>
      </trkpt>
      <trkpt lat="43.36791" lon="-1.77153">
        <ele>-0.82</ele>
        <time>2021-07-05T17:35:12Z</time>
      </trkpt>
      <trkpt lat="43.3668" lon="-1.77077">
        <ele>-0.82</ele>
        <time>2021-07-05T17:35:28Z</time>
      </trkpt>
      <trkpt lat="43.36549" lon="-1.76986">
        <ele>-0.82</ele>
        <time>2021-07-05T17:35:49Z</time>
      </trkpt>
      <trkpt lat="43.36523" lon="-1.76976">
        <ele>-1.3</ele>
        <time>2021-07-05T17:35:54Z</time>
      </trkpt>
      <trkpt lat="43.36517" lon="-1.76975">
        <ele>-1.3</ele>
        <time>2021-07-05T17:35:55Z</time>
      </trkpt>
      <trkpt lat="43.36511" lon="-1.76976">
        <ele>-1.3</ele>
        <time>2021-07-05T17:35:56Z</time>
      </trkpt>
      <trkpt lat="43.36505" lon="-1.76979">
        <ele>-1.3</ele>
        <time>2021-07-05T17:35:57Z</time>
      </trkpt>
      <trkpt lat="43.36499" lon="-1.76982">
        <ele>-1.3</ele>
        <time>2021-07-05T17:35:58Z</time>
      </trkpt>
      <trkpt lat="43.36492" lon="-1.76986">
        <ele>-0.82</ele>
        <time>2021-07-05T17:35:59Z</time>
      </trkpt>
      <trkpt lat="43.36484" lon="-1.76989">
        <ele>-0.82</ele>
        <time>2021-07-05T17:36:00Z</time>
      </trkpt>
      <trkpt lat="43.36445" lon="-1.7701">
        <ele>0.14</ele>
        <time>2021-07-05T17:36:05Z</time>
      </trkpt>
      <trkpt lat="43.36439" lon="-1.77019">
        <ele>0.14</ele>
        <time>2021-07-05T17:36:06Z</time>
      </trkpt>
      <trkpt lat="43.36366" lon="-1.7712">
        <ele>2.06</ele>
        <time>2021-07-05T17:36:15Z</time>
      </trkpt>
      <trkpt lat="43.36341" lon="-1.7714">
        <ele>3.5</ele>
        <time>2021-07-05T17:36:19Z</time>
      </trkpt>
      <trkpt lat="43.36333" lon="-1.77147">
        <ele>4.46</ele>
        <time>2021-07-05T17:36:20Z</time>
      </trkpt>
      <trkpt lat="43.36325" lon="-1.77152">
        <ele>5.42</ele>
        <time>2021-07-05T17:36:21Z</time>
      </trkpt>
      <trkpt lat="43.36317" lon="-1.77153">
        <ele>4.94</ele>
        <time>2021-07-05T17:36:22Z</time>
      </trkpt>
      <trkpt lat="43.36307" lon="-1.77154">
        <ele>4.94</ele>
        <time>2021-07-05T17:36:23Z</time>
      </trkpt>
      <trkpt lat="43.36298" lon="-1.77155">
        <ele>5.42</ele>
        <time>2021-07-05T17:36:24Z</time>
      </trkpt>
      <trkpt lat="43.36259" lon="-1.77162">
        <ele>7.35</ele>
        <time>2021-07-05T17:36:28Z</time>
      </trkpt>
      <trkpt lat="43.3625" lon="-1.77167">
        <ele>7.35</ele>
        <time>2021-07-05T17:36:29Z</time>
      </trkpt>
      <trkpt lat="43.36186" lon="-1.77206">
        <ele>7.83</ele>
        <time>2021-07-05T17:36:39Z</time>
      </trkpt>
      <trkpt lat="43.36183" lon="-1.77217">
        <ele>7.83</ele>
        <time>2021-07-05T17:36:40Z</time>
      </trkpt>
      <trkpt lat="43.36173" lon="-1.77225">
        <ele>7.83</ele>
        <time>2021-07-05T17:36:41Z</time>
      </trkpt>
      <trkpt lat="43.3614" lon="-1.7734">
        <ele>7.35</ele>
        <time>2021-07-05T17:36:51Z</time>
      </trkpt>
      <trkpt lat="43.36094" lon="-1.77472">
        <ele>14.56</ele>
        <time>2021-07-05T17:37:02Z</time>
      </trkpt>
      <trkpt lat="43.36065" lon="-1.7751">
        <ele>16</ele>
        <time>2021-07-05T17:37:06Z</time>
      </trkpt>
      <trkpt lat="43.36056" lon="-1.77516">
        <ele>16.48</ele>
        <time>2021-07-05T17:37:07Z</time>
      </trkpt>
      <trkpt lat="43.36047" lon="-1.77522">
        <ele>16.96</ele>
        <time>2021-07-05T17:37:08Z</time>
      </trkpt>
      <trkpt lat="43.36039" lon="-1.77528">
        <ele>17.92</ele>
        <time>2021-07-05T17:37:09Z</time>
      </trkpt>
      <trkpt lat="43.36032" lon="-1.77531">
        <ele>18.88</ele>
        <time>2021-07-05T17:37:10Z</time>
      </trkpt>
      <trkpt lat="43.36025" lon="-1.77533">
        <ele>18.88</ele>
        <time>2021-07-05T17:37:11Z</time>
      </trkpt>
      <trkpt lat="43.35947" lon="-1.7757">
        <ele>20.81</ele>
        <time>2021-07-05T17:37:23Z</time>
      </trkpt>
      <trkpt lat="43.35878" lon="-1.776">
        <ele>17.92</ele>
        <time>2021-07-05T17:37:37Z</time>
      </trkpt>
      <trkpt lat="43.35832" lon="-1.77616">
        <ele>15.04</ele>
        <time>2021-07-05T17:37:48Z</time>
      </trkpt>
      <trkpt lat="43.35827" lon="-1.77618">
        <ele>15.04</ele>
        <time>2021-07-05T17:37:49Z</time>
      </trkpt>
      <trkpt lat="43.35823" lon="-1.77621">
        <ele>15.04</ele>
        <time>2021-07-05T17:37:50Z</time>
      </trkpt>
      <trkpt lat="43.35815" lon="-1.77627">
        <ele>15.04</ele>
        <time>2021-07-05T17:37:52Z</time>
      </trkpt>
      <trkpt lat="43.35801" lon="-1.77636">
        <ele>14.56</ele>
        <time>2021-07-05T17:37:55Z</time>
      </trkpt>
      <trkpt lat="43.35796" lon="-1.77639">
        <ele>14.08</ele>
        <time>2021-07-05T17:37:56Z</time>
      </trkpt>
      <trkpt lat="43.35792" lon="-1.77639">
        <ele>14.56</ele>
        <time>2021-07-05T17:37:57Z</time>
      </trkpt>
      <trkpt lat="43.35787" lon="-1.77639">
        <ele>14.08</ele>
        <time>2021-07-05T17:37:58Z</time>
      </trkpt>
      <trkpt lat="43.35782" lon="-1.77639">
        <ele>14.08</ele>
        <time>2021-07-05T17:37:59Z</time>
      </trkpt>
      <trkpt lat="43.35733" lon="-1.77633">
        <ele>16</ele>
        <time>2021-07-05T17:38:12Z</time>
      </trkpt>
      <trkpt lat="43.35733" lon="-1.77633">
        <ele>16.48</ele>
        <time>2021-07-05T17:38:38Z</time>
      </trkpt>
      <trkpt lat="43.35713" lon="-1.77631">
        <ele>16.96</ele>
        <time>2021-07-05T17:39:58Z</time>
      </trkpt>
      <trkpt lat="43.35683" lon="-1.77636">
        <ele>15.52</ele>
        <time>2021-07-05T17:40:10Z</time>
      </trkpt>
      <trkpt lat="43.3566" lon="-1.77681">
        <ele>12.63</ele>
        <time>2021-07-05T17:40:30Z</time>
      </trkpt>
      <trkpt lat="43.3566" lon="-1.77681">
        <ele>12.15</ele>
        <time>2021-07-05T17:40:49Z</time>
      </trkpt>
      <trkpt lat="43.35642" lon="-1.77708">
        <ele>11.19</ele>
        <time>2021-07-05T17:42:39Z</time>
      </trkpt>
      <trkpt lat="43.35585" lon="-1.77773">
        <ele>10.71</ele>
        <time>2021-07-05T17:42:55Z</time>
      </trkpt>
      <trkpt lat="43.35528" lon="-1.77839">
        <ele>11.67</ele>
        <time>2021-07-05T17:43:10Z</time>
      </trkpt>
      <trkpt lat="43.35499" lon="-1.77875">
        <ele>12.15</ele>
        <time>2021-07-05T17:43:19Z</time>
      </trkpt>
      <trkpt lat="43.35424" lon="-1.7797">
        <ele>11.67</ele>
        <time>2021-07-05T17:43:33Z</time>
      </trkpt>
      <trkpt lat="43.35343" lon="-1.78072">
        <ele>5.91</ele>
        <time>2021-07-05T17:43:52Z</time>
      </trkpt>
      <trkpt lat="43.35336" lon="-1.7808">
        <ele>5.91</ele>
        <time>2021-07-05T17:43:54Z</time>
      </trkpt>
      <trkpt lat="43.35336" lon="-1.7808">
        <ele>5.42</ele>
        <time>2021-07-05T17:43:55Z</time>
      </trkpt>
      <trkpt lat="43.35333" lon="-1.78084">
        <ele>5.42</ele>
        <time>2021-07-05T17:43:56Z</time>
      </trkpt>
      <trkpt lat="43.35283" lon="-1.78152">
        <ele>4.46</ele>
        <time>2021-07-05T17:44:11Z</time>
      </trkpt>
      <trkpt lat="43.35218" lon="-1.78236">
        <ele>8.79</ele>
        <time>2021-07-05T17:44:28Z</time>
      </trkpt>
      <trkpt lat="43.35167" lon="-1.78293">
        <ele>10.71</ele>
        <time>2021-07-05T17:44:41Z</time>
      </trkpt>
      <trkpt lat="43.35163" lon="-1.78296">
        <ele>11.19</ele>
        <time>2021-07-05T17:44:42Z</time>
      </trkpt>
      <trkpt lat="43.35159" lon="-1.78296">
        <ele>11.19</ele>
        <time>2021-07-05T17:44:43Z</time>
      </trkpt>
      <trkpt lat="43.35155" lon="-1.78297">
        <ele>11.19</ele>
        <time>2021-07-05T17:44:44Z</time>
      </trkpt>
      <trkpt lat="43.3515" lon="-1.78297">
        <ele>11.19</ele>
        <time>2021-07-05T17:44:45Z</time>
      </trkpt>
      <trkpt lat="43.35122" lon="-1.78295">
        <ele>11.67</ele>
        <time>2021-07-05T17:44:51Z</time>
      </trkpt>
      <trkpt lat="43.35118" lon="-1.78293">
        <ele>12.15</ele>
        <time>2021-07-05T17:44:52Z</time>
      </trkpt>
      <trkpt lat="43.35118" lon="-1.78293">
        <ele>12.15</ele>
        <time>2021-07-05T17:44:53Z</time>
      </trkpt>
      <trkpt lat="43.35101" lon="-1.78284">
        <ele>11.67</ele>
        <time>2021-07-05T17:44:57Z</time>
      </trkpt>
      <trkpt lat="43.35097" lon="-1.78282">
        <ele>11.67</ele>
        <time>2021-07-05T17:44:58Z</time>
      </trkpt>
      <trkpt lat="43.35083" lon="-1.78282">
        <ele>12.15</ele>
        <time>2021-07-05T17:45:02Z</time>
      </trkpt>
      <trkpt lat="43.35079" lon="-1.78284">
        <ele>11.67</ele>
        <time>2021-07-05T17:45:03Z</time>
      </trkpt>
      <trkpt lat="43.35074" lon="-1.78286">
        <ele>11.19</ele>
        <time>2021-07-05T17:45:04Z</time>
      </trkpt>
      <trkpt lat="43.35071" lon="-1.7829">
        <ele>10.23</ele>
        <time>2021-07-05T17:45:05Z</time>
      </trkpt>
      <trkpt lat="43.35067" lon="-1.78295">
        <ele>9.75</ele>
        <time>2021-07-05T17:45:06Z</time>
      </trkpt>
      <trkpt lat="43.35064" lon="-1.78299">
        <ele>8.79</ele>
        <time>2021-07-05T17:45:07Z</time>
      </trkpt>
      <trkpt lat="43.35028" lon="-1.7835">
        <ele>4.46</ele>
        <time>2021-07-05T17:45:18Z</time>
      </trkpt>
      <trkpt lat="43.34966" lon="-1.7843">
        <ele>2.54</ele>
        <time>2021-07-05T17:45:30Z</time>
      </trkpt>
      <trkpt lat="43.34881" lon="-1.78543">
        <ele>1.1</ele>
        <time>2021-07-05T17:45:44Z</time>
      </trkpt>
      <trkpt lat="43.34807" lon="-1.78638">
        <ele>-2.27</ele>
        <time>2021-07-05T17:45:58Z</time>
      </trkpt>
      <trkpt lat="43.34791" lon="-1.78655">
        <ele>-2.27</ele>
        <time>2021-07-05T17:46:05Z</time>
      </trkpt>
      <trkpt lat="43.34789" lon="-1.78691">
        <ele>-1.79</ele>
        <time>2021-07-05T17:46:11Z</time>
      </trkpt>
      <trkpt lat="43.34786" lon="-1.78694">
        <ele>-1.79</ele>
        <time>2021-07-05T17:46:12Z</time>
      </trkpt>
      <trkpt lat="43.34783" lon="-1.78699">
        <ele>-2.27</ele>
        <time>2021-07-05T17:46:13Z</time>
      </trkpt>
      <trkpt lat="43.3478" lon="-1.78702">
        <ele>-2.27</ele>
        <time>2021-07-05T17:46:14Z</time>
      </trkpt>
      <trkpt lat="43.34776" lon="-1.78701">
        <ele>-2.27</ele>
        <time>2021-07-05T17:46:15Z</time>
      </trkpt>
      <trkpt lat="43.34773" lon="-1.787">
        <ele>-1.79</ele>
        <time>2021-07-05T17:46:16Z</time>
      </trkpt>
      <trkpt lat="43.34772" lon="-1.787">
        <ele>-1.79</ele>
        <time>2021-07-05T17:46:17Z</time>
      </trkpt>
      <trkpt lat="43.34768" lon="-1.78696">
        <ele>-1.79</ele>
        <time>2021-07-05T17:46:18Z</time>
      </trkpt>
      <trkpt lat="43.34766" lon="-1.78694">
        <ele>-1.79</ele>
        <time>2021-07-05T17:46:19Z</time>
      </trkpt>
      <trkpt lat="43.34754" lon="-1.78693">
        <ele>-1.79</ele>
        <time>2021-07-05T17:46:20Z</time>
      </trkpt>
      <trkpt lat="43.3475" lon="-1.78696">
        <ele>-1.3</ele>
        <time>2021-07-05T17:46:21Z</time>
      </trkpt>
    </trkseg>
  </trk>
</gpx>